createdAt,value
2019-02-26T00:01:09.845Z,2.50
2019-02-26T00:02:17.395Z,2.50
2019-02-26T00:03:26.269Z,2.60
2019-02-26T00:04:36.931Z,2.60
2019-02-26T00:05:43.199Z,2.60
2019-02-26T00:06:49.253Z,2.60
2019-02-26T00:07:57.860Z,2.60
2019-02-26T00:09:07.121Z,2.60
2019-02-26T00:10:13.623Z,2.60
2019-02-26T00:11:19.905Z,2.70
2019-02-26T00:12:26.358Z,2.70
2019-02-26T00:13:34.629Z,2.70
2019-02-26T00:14:43.076Z,2.70
2019-02-26T00:15:49.176Z,2.70
2019-02-26T00:16:55.353Z,2.60
2019-02-26T00:18:01.611Z,2.60
2019-02-26T00:19:09.616Z,2.60
2019-02-26T00:20:17.556Z,2.60
2019-02-26T00:21:24.418Z,2.60
2019-02-26T00:22:32.320Z,2.60
2019-02-26T00:23:39.334Z,2.60
2019-02-26T00:24:46.628Z,2.60
2019-02-26T00:25:53.006Z,2.60
2019-02-26T00:27:01.484Z,2.60
2019-02-26T00:28:07.175Z,2.60
2019-02-26T00:29:13.407Z,2.60
2019-02-26T00:30:19.596Z,2.60
2019-02-26T00:31:27.851Z,2.60
2019-02-26T00:32:33.915Z,2.60
2019-02-26T00:33:40.707Z,2.60
2019-02-26T00:34:46.768Z,2.60
2019-02-26T00:35:53.027Z,2.60
2019-02-26T00:37:00.025Z,2.60
2019-02-26T00:38:08.883Z,2.60
2019-02-26T00:39:14.557Z,2.60
2019-02-26T00:40:20.672Z,2.60
2019-02-26T00:41:28.738Z,2.70
2019-02-26T00:42:36.078Z,2.70
2019-02-26T00:43:42.313Z,2.70
2019-02-26T00:44:51.360Z,2.70
2019-02-26T00:45:58.288Z,2.70
2019-02-26T00:47:04.962Z,2.70
2019-02-26T00:48:11.907Z,2.70
2019-02-26T00:49:19.107Z,2.70
2019-02-26T00:50:25.358Z,2.60
2019-02-26T00:51:31.543Z,2.60
2019-02-26T00:52:39.176Z,2.60
2019-02-26T00:53:48.864Z,2.70
2019-02-26T00:54:57.604Z,2.70
2019-02-26T00:56:03.269Z,2.70
2019-02-26T00:57:11.552Z,2.70
2019-02-26T00:58:18.176Z,2.70
2019-02-26T00:59:24.304Z,2.80
2019-02-26T01:00:30.860Z,2.80
2019-02-26T01:01:38.228Z,2.80
2019-02-26T01:02:44.931Z,2.80
2019-02-26T01:03:51.780Z,2.80
2019-02-26T01:04:58.032Z,2.80
2019-02-26T01:06:05.806Z,2.80
2019-02-26T01:07:12.987Z,2.80
2019-02-26T01:08:19.849Z,2.80
2019-02-26T01:09:27.354Z,2.80
2019-02-26T01:10:34.649Z,2.80
2019-02-26T01:11:42.962Z,2.80
2019-02-26T01:12:49.674Z,2.90
2019-02-26T01:13:57.341Z,2.80
2019-02-26T01:15:04.970Z,2.80
2019-02-26T01:16:11.616Z,2.80
2019-02-26T01:17:18.808Z,2.60
2019-02-26T01:18:26.699Z,2.70
2019-02-26T01:19:34.172Z,2.70
2019-02-26T01:20:41.010Z,2.60
2019-02-26T01:21:46.985Z,2.60
2019-02-26T01:22:53.036Z,2.60
2019-02-26T01:24:01.609Z,2.60
2019-02-26T01:25:07.361Z,2.60
2019-02-26T01:26:13.543Z,2.60
2019-02-26T01:27:19.692Z,2.70
2019-02-26T01:28:27.052Z,2.70
2019-02-26T01:29:33.828Z,2.80
2019-02-26T01:30:40.077Z,2.80
2019-02-26T01:31:46.148Z,2.80
2019-02-26T01:32:52.355Z,2.70
2019-02-26T01:33:58.655Z,2.70
2019-02-26T01:35:05.925Z,2.70
2019-02-26T01:36:14.009Z,2.70
2019-02-26T01:37:20.917Z,2.60
2019-02-26T01:38:27.038Z,2.60
2019-02-26T01:39:33.202Z,2.70
2019-02-26T01:40:41.817Z,2.80
2019-02-26T01:41:50.393Z,2.90
2019-02-26T01:42:57.923Z,2.90
2019-02-26T01:44:05.021Z,2.90
2019-02-26T01:45:11.967Z,2.90
2019-02-26T01:46:18.742Z,2.90
2019-02-26T01:47:26.271Z,2.90
2019-02-26T01:48:34.388Z,2.90
2019-02-26T01:49:41.855Z,3.00
2019-02-26T01:50:48.608Z,3.00
2019-02-26T01:51:54.757Z,3.00
2019-02-26T01:53:01.130Z,3.00
2019-02-26T01:54:08.211Z,3.10
2019-02-26T01:55:16.167Z,3.00
2019-02-26T01:56:22.768Z,3.00
2019-02-26T01:57:28.628Z,3.00
2019-02-26T01:58:34.441Z,3.00
2019-02-26T01:59:40.517Z,3.00
2019-02-26T02:00:46.807Z,3.00
2019-02-26T02:01:53.757Z,3.00
2019-02-26T02:03:00.656Z,3.00
2019-02-26T02:04:08.763Z,3.00
2019-02-26T02:05:14.686Z,3.10
2019-02-26T02:06:20.769Z,3.00
2019-02-26T02:07:28.728Z,3.00
2019-02-26T02:08:34.909Z,3.00
2019-02-26T02:09:40.654Z,3.00
2019-02-26T02:10:46.426Z,3.00
2019-02-26T02:11:52.546Z,3.10
2019-02-26T02:13:00.276Z,3.10
2019-02-26T02:14:08.138Z,3.10
2019-02-26T02:15:15.760Z,3.10
2019-02-26T02:16:24.198Z,3.10
2019-02-26T02:17:33.276Z,3.10
2019-02-26T02:18:43.654Z,3.10
2019-02-26T02:19:48.086Z,3.10
2019-02-26T02:20:54.246Z,3.10
2019-02-26T02:22:00.228Z,3.10
2019-02-26T02:23:07.127Z,3.10
2019-02-26T02:24:15.563Z,3.10
2019-02-26T02:25:22.214Z,3.10
2019-02-26T02:26:28.398Z,3.10
2019-02-26T02:27:34.757Z,3.20
2019-02-26T02:28:40.968Z,3.20
2019-02-26T02:29:48.816Z,3.20
2019-02-26T02:30:55.223Z,3.20
2019-02-26T02:32:04.434Z,3.20
2019-02-26T02:33:10.483Z,3.20
2019-02-26T02:34:16.666Z,3.10
2019-02-26T02:35:22.816Z,3.20
2019-02-26T02:36:30.069Z,3.20
2019-02-26T02:37:36.255Z,3.20
2019-02-26T02:38:42.444Z,3.20
2019-02-26T02:39:48.526Z,3.20
2019-02-26T02:40:55.021Z,3.20
2019-02-26T02:42:01.217Z,3.20
2019-02-26T02:43:07.959Z,3.20
2019-02-26T02:44:17.661Z,3.20
2019-02-26T02:45:24.345Z,3.20
2019-02-26T02:46:30.552Z,3.10
2019-02-26T02:47:38.694Z,3.20
2019-02-26T02:48:45.426Z,3.20
2019-02-26T02:49:51.697Z,3.10
2019-02-26T02:50:59.609Z,3.20
2019-02-26T02:52:07.224Z,3.20
2019-02-26T02:53:13.796Z,3.20
2019-02-26T02:54:20.965Z,3.30
2019-02-26T02:55:27.436Z,3.30
2019-02-26T02:56:36.001Z,3.30
2019-02-26T02:57:41.374Z,3.20
2019-02-26T02:58:49.499Z,3.20
2019-02-26T02:59:56.849Z,3.20
2019-02-26T03:01:03.305Z,3.20
2019-02-26T03:02:12.023Z,3.30
2019-02-26T03:03:17.174Z,3.30
2019-02-26T03:04:26.044Z,3.30
2019-02-26T03:05:32.105Z,3.30
2019-02-26T03:06:38.745Z,3.30
2019-02-26T03:07:48.149Z,3.30
2019-02-26T03:08:53.492Z,3.30
2019-02-26T03:10:03.924Z,3.20
2019-02-26T03:11:09.298Z,3.20
2019-02-26T03:12:15.353Z,3.20
2019-02-26T03:13:24.872Z,3.30
2019-02-26T03:14:32.430Z,3.20
2019-02-26T03:15:37.193Z,3.20
2019-02-26T03:16:45.589Z,3.30
2019-02-26T03:17:51.745Z,3.20
2019-02-26T03:18:58.120Z,3.20
2019-02-26T03:20:06.954Z,3.30
2019-02-26T03:21:12.536Z,3.30
2019-02-26T03:22:21.449Z,3.30
2019-02-26T03:23:26.557Z,3.30
2019-02-26T03:24:33.848Z,3.30
2019-02-26T03:25:41.481Z,3.40
2019-02-26T03:26:48.230Z,3.40
2019-02-26T03:27:54.365Z,3.40
2019-02-26T03:29:00.242Z,3.30
2019-02-26T03:30:07.574Z,3.30
2019-02-26T03:31:13.706Z,3.30
2019-02-26T03:32:20.819Z,3.30
2019-02-26T03:33:27.084Z,3.40
2019-02-26T03:34:33.346Z,3.30
2019-02-26T03:35:39.569Z,3.30
2019-02-26T03:36:45.871Z,3.30
2019-02-26T03:37:54.882Z,3.40
2019-02-26T03:39:02.653Z,3.40
2019-02-26T03:40:10.288Z,3.40
2019-02-26T03:41:19.577Z,3.30
2019-02-26T03:42:24.407Z,3.30
2019-02-26T03:43:31.399Z,3.20
2019-02-26T03:44:38.597Z,3.20
2019-02-26T03:45:47.356Z,3.20
2019-02-26T03:46:52.756Z,3.20
2019-02-26T03:47:59.020Z,3.20
2019-02-26T03:49:05.233Z,3.20
2019-02-26T03:50:13.285Z,3.20
2019-02-26T03:51:19.313Z,3.20
2019-02-26T03:52:25.654Z,3.20
2019-02-26T03:53:34.258Z,3.30
2019-02-26T03:54:40.324Z,3.20
2019-02-26T03:55:48.126Z,3.20
2019-02-26T03:56:54.366Z,3.30
2019-02-26T03:58:02.145Z,3.30
2019-02-26T03:59:11.128Z,3.30
2019-02-26T04:00:19.559Z,3.30
2019-02-26T04:01:24.629Z,3.30
2019-02-26T04:02:30.662Z,3.30
2019-02-26T04:03:37.563Z,3.30
2019-02-26T04:04:48.802Z,3.30
2019-02-26T04:05:57.079Z,3.20
2019-02-26T04:07:04.914Z,3.30
2019-02-26T04:08:11.407Z,3.20
2019-02-26T04:09:19.605Z,3.20
2019-02-26T04:10:25.289Z,3.20
2019-02-26T04:11:32.686Z,3.10
2019-02-26T04:12:41.961Z,3.20
2019-02-26T04:13:48.683Z,3.20
2019-02-26T04:14:54.034Z,3.20
2019-02-26T04:16:03.851Z,3.20
2019-02-26T04:17:09.023Z,3.20
2019-02-26T04:18:15.237Z,3.10
2019-02-26T04:19:26.147Z,3.10
2019-02-26T04:20:29.440Z,3.10
2019-02-26T04:22:13.131Z,3.10
2019-02-26T04:23:21.863Z,3.10
2019-02-26T04:24:29.908Z,3.00
2019-02-26T04:25:43.314Z,3.10
2019-02-26T04:27:33.494Z,3.10
2019-02-26T04:29:06.451Z,3.10
2019-02-26T04:30:39.333Z,3.10
2019-02-26T04:32:23.260Z,3.20
2019-02-26T04:34:08.487Z,3.20
2019-02-26T04:35:44.896Z,3.20
2019-02-26T04:37:32.761Z,3.10
2019-02-26T04:39:36.748Z,3.10
2019-02-26T04:41:15.884Z,3.10
2019-02-26T04:42:47.758Z,3.10
2019-02-26T04:44:33.902Z,3.20
2019-02-26T04:45:57.301Z,3.20
2019-02-26T04:47:30.798Z,3.30
2019-02-26T04:48:38.436Z,3.40
2019-02-26T04:49:44.496Z,3.30
2019-02-26T04:50:50.754Z,3.30
2019-02-26T04:51:56.936Z,3.30
2019-02-26T04:53:05.814Z,3.30
2019-02-26T04:54:10.916Z,3.30
2019-02-26T04:55:16.958Z,3.20
2019-02-26T04:56:23.035Z,3.20
2019-02-26T04:57:29.024Z,3.20
2019-02-26T04:58:37.205Z,3.20
2019-02-26T04:59:43.829Z,3.20
2019-02-26T05:00:51.358Z,3.20
2019-02-26T05:01:57.569Z,3.20
2019-02-26T05:03:05.218Z,3.10
2019-02-26T05:04:11.728Z,3.00
2019-02-26T05:05:17.877Z,3.00
2019-02-26T05:06:24.225Z,3.00
2019-02-26T05:07:32.782Z,3.00
2019-02-26T05:08:40.130Z,3.00
2019-02-26T05:09:47.309Z,3.00
2019-02-26T05:10:55.026Z,3.00
2019-02-26T05:12:01.331Z,2.90
2019-02-26T05:13:09.691Z,2.90
2019-02-26T05:14:20.799Z,2.90
2019-02-26T05:15:26.246Z,2.80
2019-02-26T05:16:32.645Z,2.80
2019-02-26T05:17:39.039Z,2.70
2019-02-26T05:18:47.048Z,2.70
2019-02-26T05:19:52.544Z,2.70
2019-02-26T05:20:59.751Z,2.70
2019-02-26T05:22:07.160Z,2.70
2019-02-26T05:23:13.386Z,2.70
2019-02-26T05:24:21.924Z,2.70
2019-02-26T05:25:28.673Z,2.60
2019-02-26T05:26:35.017Z,2.60
2019-02-26T05:27:42.805Z,2.60
2019-02-26T05:28:51.555Z,2.50
2019-02-26T05:29:57.868Z,2.50
2019-02-26T05:31:06.423Z,2.50
2019-02-26T05:32:11.905Z,2.60
2019-02-26T05:33:18.500Z,2.60
2019-02-26T05:34:26.035Z,2.60
2019-02-26T05:35:32.356Z,2.60
2019-02-26T05:36:40.289Z,2.60
2019-02-26T05:37:46.254Z,2.60
2019-02-26T05:38:54.634Z,2.60
2019-02-26T05:40:00.381Z,2.60
2019-02-26T05:41:06.576Z,2.50
2019-02-26T05:42:12.354Z,2.50
2019-02-26T05:43:20.245Z,2.60
2019-02-26T05:44:26.196Z,2.50
2019-02-26T05:45:34.997Z,2.50
2019-02-26T05:46:40.080Z,2.50
2019-02-26T05:47:48.878Z,2.50
2019-02-26T05:48:54.116Z,2.50
2019-02-26T05:50:02.712Z,2.50
2019-02-26T05:51:09.341Z,2.50
2019-02-26T05:52:15.832Z,2.60
2019-02-26T05:53:21.706Z,2.60
2019-02-26T05:54:27.899Z,2.60
2019-02-26T05:55:34.149Z,2.60
2019-02-26T05:56:41.289Z,2.50
2019-02-26T05:57:48.256Z,2.60
2019-02-26T05:58:54.427Z,2.50
2019-02-26T06:00:00.545Z,2.50
2019-02-26T06:01:06.686Z,2.50
2019-02-26T06:02:14.188Z,2.50
2019-02-26T06:03:20.910Z,2.50
2019-02-26T06:04:27.285Z,2.60
2019-02-26T06:05:32.960Z,2.60
2019-02-26T06:06:39.156Z,2.60
2019-02-26T06:07:45.543Z,2.60
2019-02-26T06:08:54.355Z,2.60
2019-02-26T06:09:59.946Z,2.60
2019-02-26T06:11:06.370Z,2.50
2019-02-26T06:12:12.517Z,2.60
2019-02-26T06:13:18.832Z,2.70
2019-02-26T06:14:27.424Z,2.70
2019-02-26T06:15:34.190Z,2.80
2019-02-26T06:16:40.376Z,2.90
2019-02-26T06:17:48.162Z,2.90
2019-02-26T06:18:54.455Z,2.90
2019-02-26T06:20:11.134Z,2.90
2019-02-26T06:21:20.453Z,3.00
2019-02-26T06:22:27.186Z,3.00
2019-02-26T06:23:34.464Z,3.00
2019-02-26T06:24:40.755Z,3.10
2019-02-26T06:25:46.897Z,3.10
2019-02-26T06:26:54.261Z,3.10
2019-02-26T06:28:04.528Z,3.20
2019-02-26T06:29:07.943Z,3.20
2019-02-26T06:30:14.460Z,3.30
2019-02-26T06:31:22.085Z,3.30
2019-02-26T06:32:32.205Z,3.30
2019-02-26T06:33:38.346Z,3.40
2019-02-26T06:34:44.056Z,3.30
2019-02-26T06:35:50.150Z,3.30
2019-02-26T06:37:13.832Z,3.30
2019-02-26T06:38:21.099Z,3.40
2019-02-26T06:39:29.184Z,3.40
2019-02-26T06:40:36.961Z,3.40
2019-02-26T06:41:44.353Z,3.40
2019-02-26T06:42:50.648Z,3.40
2019-02-26T06:43:57.010Z,3.50
2019-02-26T06:45:04.040Z,3.50
2019-02-26T06:46:12.275Z,3.50
2019-02-26T06:47:18.720Z,3.60
2019-02-26T06:48:27.531Z,3.60
2019-02-26T06:49:32.805Z,3.60
2019-02-26T06:50:41.065Z,3.60
2019-02-26T06:51:47.462Z,3.70
2019-02-26T06:52:54.658Z,3.70
2019-02-26T06:54:01.163Z,3.80
2019-02-26T06:55:08.704Z,3.80
2019-02-26T06:56:16.029Z,3.70
2019-02-26T06:57:22.740Z,3.90
2019-02-26T06:58:29.697Z,3.90
2019-02-26T06:59:36.869Z,3.90
2019-02-26T07:00:43.702Z,3.80
2019-02-26T07:01:50.160Z,3.80
2019-02-26T07:02:56.413Z,3.90
2019-02-26T07:04:02.735Z,3.90
2019-02-26T07:05:11.080Z,3.90
2019-02-26T07:06:22.769Z,3.90
2019-02-26T07:07:27.107Z,4.00
2019-02-26T07:08:33.356Z,4.00
2019-02-26T07:09:41.458Z,4.10
2019-02-26T07:10:48.207Z,4.10
2019-02-26T07:11:54.337Z,4.10
2019-02-26T07:13:02.060Z,4.20
2019-02-26T07:14:10.222Z,4.30
2019-02-26T07:15:16.372Z,4.40
2019-02-26T07:16:23.557Z,4.40
2019-02-26T07:17:33.743Z,4.40
2019-02-26T07:18:37.765Z,4.40
2019-02-26T07:19:43.935Z,4.40
2019-02-26T07:20:52.601Z,4.50
2019-02-26T07:21:57.385Z,4.50
2019-02-26T07:23:05.667Z,4.70
2019-02-26T07:24:11.317Z,4.70
2019-02-26T07:25:18.622Z,4.70
2019-02-26T07:26:24.876Z,4.70
2019-02-26T07:27:32.061Z,4.80
2019-02-26T07:28:39.705Z,4.80
2019-02-26T07:29:47.954Z,4.90
2019-02-26T07:30:54.433Z,4.90
2019-02-26T07:32:00.710Z,4.90
2019-02-26T07:33:08.040Z,5.10
2019-02-26T07:34:15.652Z,5.00
2019-02-26T07:35:22.330Z,5.20
2019-02-26T07:36:28.638Z,5.30
2019-02-26T07:37:37.544Z,5.30
2019-02-26T07:38:44.638Z,5.40
2019-02-26T07:39:51.557Z,6.80
2019-02-26T07:40:59.566Z,7.70
2019-02-26T07:42:07.415Z,7.80
2019-02-26T07:43:15.399Z,7.70
2019-02-26T07:44:23.425Z,7.50
2019-02-26T07:45:29.813Z,7.20
2019-02-26T07:46:38.557Z,6.90
2019-02-26T07:47:45.501Z,6.40
2019-02-26T07:48:53.889Z,6.30
2019-02-26T07:50:01.755Z,6.20
2019-02-26T07:51:07.302Z,6.10
2019-02-26T07:52:13.462Z,6.10
2019-02-26T07:53:22.163Z,6.10
2019-02-26T07:54:29.079Z,6.00
2019-02-26T07:55:35.989Z,6.10
2019-02-26T07:56:43.296Z,6.30
2019-02-26T07:57:51.217Z,6.20
2019-02-26T07:59:01.301Z,6.10
2019-02-26T08:00:05.975Z,6.00
2019-02-26T08:01:12.516Z,5.90
2019-02-26T08:02:18.737Z,6.10
2019-02-26T08:03:26.850Z,6.40
2019-02-26T08:04:34.491Z,6.50
2019-02-26T08:05:40.287Z,6.60
2019-02-26T08:06:46.332Z,6.50
2019-02-26T08:07:55.819Z,6.40
2019-02-26T08:09:00.094Z,6.50
2019-02-26T08:10:09.970Z,6.60
2019-02-26T08:11:16.251Z,6.70
2019-02-26T08:12:22.402Z,6.70
2019-02-26T08:13:29.700Z,6.60
2019-02-26T08:14:41.082Z,6.50
2019-02-26T08:15:47.573Z,6.30
2019-02-26T08:16:56.125Z,6.20
2019-02-26T08:18:03.466Z,6.20
2019-02-26T08:19:09.444Z,6.10
2019-02-26T08:20:16.310Z,6.10
2019-02-26T08:21:24.739Z,6.10
2019-02-26T08:22:32.360Z,6.10
2019-02-26T08:23:38.007Z,6.20
2019-02-26T08:24:46.092Z,6.60
2019-02-26T08:25:52.365Z,6.90
2019-02-26T08:27:01.035Z,7.10
2019-02-26T08:28:07.362Z,7.10
2019-02-26T08:29:13.493Z,6.80
2019-02-26T08:30:21.408Z,6.70
2019-02-26T08:31:28.038Z,6.50
2019-02-26T08:32:34.180Z,6.40
2019-02-26T08:33:40.162Z,6.40
2019-02-26T08:34:46.296Z,6.40
2019-02-26T08:35:55.543Z,6.60
2019-02-26T08:37:00.101Z,6.60
2019-02-26T08:38:06.680Z,6.70
2019-02-26T08:39:15.619Z,6.80
2019-02-26T08:40:20.548Z,6.70
2019-02-26T08:41:26.616Z,6.70
2019-02-26T08:42:32.820Z,6.70
2019-02-26T08:43:42.173Z,6.70
2019-02-26T08:44:48.672Z,6.70
2019-02-26T08:45:54.686Z,6.70
2019-02-26T08:47:00.983Z,6.70
2019-02-26T08:48:07.606Z,7.00
2019-02-26T08:49:15.543Z,7.00
2019-02-26T08:50:21.107Z,7.00
2019-02-26T08:51:27.342Z,7.20
2019-02-26T08:52:33.597Z,7.20
2019-02-26T08:53:39.735Z,7.30
2019-02-26T08:54:45.878Z,7.60
2019-02-26T08:55:53.632Z,7.90
2019-02-26T08:56:59.978Z,8.20
2019-02-26T08:58:07.759Z,8.50
2019-02-26T08:59:15.598Z,8.00
2019-02-26T09:00:21.726Z,8.70
2019-02-26T09:01:27.714Z,8.90
2019-02-26T09:02:33.812Z,8.90
2019-02-26T09:03:40.953Z,8.80
2019-02-26T09:04:47.803Z,8.60
2019-02-26T09:05:56.134Z,8.30
2019-02-26T09:07:02.116Z,8.10
2019-02-26T09:08:10.877Z,7.90
2019-02-26T09:09:16.455Z,7.80
2019-02-26T09:10:23.376Z,7.70
2019-02-26T09:11:31.828Z,7.60
2019-02-26T09:12:39.009Z,7.60
2019-02-26T09:13:45.406Z,7.50
2019-02-26T09:14:51.500Z,7.50
2019-02-26T09:16:00.106Z,7.40
2019-02-26T09:17:05.555Z,7.40
2019-02-26T09:18:11.979Z,7.40
2019-02-26T09:19:18.452Z,7.40
2019-02-26T09:20:24.726Z,7.50
2019-02-26T09:21:34.743Z,7.50
2019-02-26T09:22:40.577Z,7.60
2019-02-26T09:23:49.892Z,7.80
2019-02-26T09:24:56.923Z,7.80
2019-02-26T09:26:05.148Z,7.80
2019-02-26T09:27:11.857Z,7.70
2019-02-26T09:28:17.928Z,7.70
2019-02-26T09:29:24.193Z,7.70
2019-02-26T09:30:33.423Z,7.70
2019-02-26T09:31:39.448Z,7.70
2019-02-26T09:32:45.756Z,7.70
2019-02-26T09:33:52.054Z,7.70
2019-02-26T09:34:59.284Z,7.80
2019-02-26T09:36:10.523Z,7.90
2019-02-26T09:37:14.756Z,7.90
2019-02-26T09:38:22.968Z,7.90
2019-02-26T09:39:29.462Z,7.80
2019-02-26T09:40:36.432Z,7.80
2019-02-26T09:41:45.371Z,7.90
2019-02-26T09:42:52.371Z,8.00
2019-02-26T09:43:59.362Z,7.90
2019-02-26T09:45:07.126Z,7.90
2019-02-26T09:46:16.353Z,7.80
2019-02-26T09:47:30.981Z,7.90
2019-02-26T09:48:38.249Z,8.20
2019-02-26T09:49:47.805Z,8.40
2019-02-26T09:50:53.872Z,8.60
2019-02-26T09:52:01.547Z,9.10
2019-02-26T09:53:07.851Z,9.30
2019-02-26T09:54:15.295Z,9.50
2019-02-26T09:55:21.751Z,9.20
2019-02-26T09:56:28.117Z,9.10
2019-02-26T09:57:34.357Z,8.90
2019-02-26T09:58:45.701Z,8.90
2019-02-26T09:59:54.588Z,8.80
2019-02-26T10:01:00.505Z,8.80
2019-02-26T10:02:07.996Z,8.90
2019-02-26T10:03:15.090Z,9.00
2019-02-26T10:04:22.116Z,9.40
2019-02-26T10:05:28.923Z,10.20
2019-02-26T10:06:37.358Z,11.20
2019-02-26T10:07:43.023Z,11.60
2019-02-26T10:08:51.350Z,11.60
2019-02-26T10:09:57.178Z,11.80
2019-02-26T10:11:04.902Z,11.80
2019-02-26T10:12:13.477Z,11.80
2019-02-26T10:13:21.079Z,12.00
2019-02-26T10:14:28.661Z,12.20
2019-02-26T10:15:35.456Z,12.60
2019-02-26T10:16:42.168Z,12.70
2019-02-26T10:17:48.067Z,12.10
2019-02-26T10:18:54.925Z,12.00
2019-02-26T10:20:04.421Z,11.90
2019-02-26T10:21:12.046Z,11.50
2019-02-26T10:22:17.774Z,11.00
2019-02-26T10:23:24.121Z,10.80
2019-02-26T10:24:32.874Z,10.80
2019-02-26T10:25:39.436Z,10.80
2019-02-26T10:26:45.407Z,10.60
2019-02-26T10:27:51.641Z,10.30
2019-02-26T10:29:03.877Z,10.10
2019-02-26T10:30:09.922Z,10.00
2019-02-26T10:31:13.731Z,10.00
2019-02-26T10:32:19.879Z,10.00
2019-02-26T10:33:27.816Z,9.90
2019-02-26T10:34:34.046Z,10.00
2019-02-26T10:35:44.312Z,9.90
2019-02-26T10:36:51.283Z,9.80
2019-02-26T10:37:57.095Z,9.70
2019-02-26T10:39:04.177Z,9.70
2019-02-26T10:40:12.087Z,9.80
2019-02-26T10:41:21.144Z,9.90
2019-02-26T10:42:27.065Z,10.20
2019-02-26T10:43:33.388Z,10.60
2019-02-26T10:44:42.735Z,10.90
2019-02-26T10:45:50.574Z,11.30
2019-02-26T10:46:58.230Z,11.10
2019-02-26T10:48:04.781Z,11.00
2019-02-26T10:49:12.399Z,10.70
2019-02-26T10:50:20.579Z,10.90
2019-02-26T10:51:27.219Z,11.00
2019-02-26T10:52:33.549Z,10.90
2019-02-26T10:53:39.818Z,11.10
2019-02-26T10:54:46.589Z,11.30
2019-02-26T10:55:52.891Z,11.60
2019-02-26T10:57:00.444Z,11.70
2019-02-26T10:58:10.461Z,11.50
2019-02-26T10:59:18.800Z,11.30
2019-02-26T11:00:25.968Z,11.20
2019-02-26T11:01:33.714Z,11.30
2019-02-26T11:02:46.012Z,11.40
2019-02-26T11:03:52.831Z,11.50
2019-02-26T11:04:59.176Z,11.60
2019-02-26T11:06:07.297Z,12.20
2019-02-26T11:07:14.266Z,12.40
2019-02-26T11:08:24.749Z,12.70
2019-02-26T11:09:31.891Z,12.60
2019-02-26T11:10:41.375Z,12.00
2019-02-26T11:11:45.590Z,12.10
2019-02-26T11:12:53.626Z,12.60
2019-02-26T11:13:59.628Z,12.60
2019-02-26T11:15:06.797Z,12.70
2019-02-26T11:16:17.078Z,13.20
2019-02-26T11:17:23.676Z,13.70
2019-02-26T11:18:29.933Z,14.30
2019-02-26T11:19:38.851Z,13.80
2019-02-26T11:20:45.817Z,13.50
2019-02-26T11:21:55.388Z,13.60
2019-02-26T11:22:58.888Z,14.30
2019-02-26T11:24:06.091Z,14.00
2019-02-26T11:25:15.812Z,13.70
2019-02-26T11:26:21.861Z,13.80
2019-02-26T11:27:28.144Z,14.90
2019-02-26T11:28:38.058Z,15.50
2019-02-26T11:29:42.279Z,16.10
2019-02-26T11:30:49.742Z,16.80
2019-02-26T11:31:56.125Z,17.30
2019-02-26T11:33:04.738Z,18.00
2019-02-26T11:34:11.253Z,18.80
2019-02-26T11:35:19.568Z,19.40
2019-02-26T11:36:25.426Z,18.70
2019-02-26T11:37:32.061Z,18.00
2019-02-26T11:38:41.613Z,17.00
2019-02-26T11:39:46.083Z,15.70
2019-02-26T11:40:52.263Z,14.90
2019-02-26T11:42:00.725Z,14.20
2019-02-26T11:43:11.512Z,13.80
2019-02-26T11:44:18.897Z,13.10
2019-02-26T11:45:21.652Z,12.70
2019-02-26T11:46:29.894Z,12.70
2019-02-26T11:47:37.383Z,12.60
2019-02-26T11:48:45.667Z,12.50
2019-02-26T11:49:51.811Z,12.40
2019-02-26T11:51:00.800Z,12.30
2019-02-26T11:52:05.966Z,12.20
2019-02-26T11:53:12.214Z,12.30
2019-02-26T11:54:17.934Z,12.10
2019-02-26T11:55:26.195Z,12.20
2019-02-26T11:56:31.552Z,12.30
2019-02-26T11:57:39.865Z,12.50
2019-02-26T11:58:45.526Z,12.70
2019-02-26T11:59:51.710Z,12.60
2019-02-26T12:00:59.567Z,12.90
2019-02-26T12:02:07.663Z,13.10
2019-02-26T12:03:14.332Z,13.20
2019-02-26T12:04:20.543Z,13.60
2019-02-26T12:05:31.432Z,13.80
2019-02-26T12:06:33.884Z,13.80
2019-02-26T12:07:40.207Z,14.30
2019-02-26T12:08:47.353Z,15.20
2019-02-26T12:09:55.538Z,16.20
2019-02-26T12:11:04.049Z,16.70
2019-02-26T12:12:11.602Z,16.60
2019-02-26T12:13:19.948Z,16.40
2019-02-26T12:14:27.418Z,16.20
2019-02-26T12:15:36.291Z,16.40
2019-02-26T12:16:41.725Z,17.00
2019-02-26T12:17:51.765Z,17.50
2019-02-26T12:18:58.775Z,17.60
2019-02-26T12:20:09.237Z,18.40
2019-02-26T12:21:15.486Z,18.20
2019-02-26T12:22:22.751Z,18.20
2019-02-26T12:23:29.485Z,17.70
2019-02-26T12:24:36.234Z,18.30
2019-02-26T12:25:42.428Z,18.50
2019-02-26T12:26:49.984Z,17.80
2019-02-26T12:27:56.033Z,17.50
2019-02-26T12:29:04.317Z,16.40
2019-02-26T12:30:15.834Z,15.20
2019-02-26T12:31:21.887Z,14.40
2019-02-26T12:32:29.622Z,14.20
2019-02-26T12:33:35.846Z,14.90
2019-02-26T12:34:44.628Z,15.50
2019-02-26T12:35:50.650Z,16.40
2019-02-26T12:36:59.629Z,16.50
2019-02-26T12:38:17.517Z,15.60
2019-02-26T12:39:12.490Z,15.30
2019-02-26T12:40:19.345Z,15.10
2019-02-26T12:41:26.147Z,14.90
2019-02-26T12:42:32.315Z,14.80
2019-02-26T12:43:42.647Z,14.30
2019-02-26T12:44:46.649Z,13.80
2019-02-26T12:45:56.069Z,13.90
2019-02-26T12:47:00.606Z,14.00
2019-02-26T12:48:09.863Z,14.40
2019-02-26T12:49:16.050Z,14.40
2019-02-26T12:50:26.067Z,14.70
2019-02-26T12:51:31.820Z,14.30
2019-02-26T12:52:37.463Z,13.90
2019-02-26T12:53:49.189Z,14.00
2019-02-26T12:54:54.943Z,14.30
2019-02-26T12:56:03.206Z,14.70
2019-02-26T12:57:09.907Z,14.50
2019-02-26T12:58:18.673Z,14.20
2019-02-26T12:59:24.039Z,14.10
2019-02-26T13:00:31.036Z,14.40
2019-02-26T13:01:39.789Z,14.40
2019-02-26T13:02:45.742Z,14.10
2019-02-26T13:03:54.945Z,13.80
2019-02-26T13:05:00.877Z,13.50
2019-02-26T13:06:09.955Z,13.30
2019-02-26T13:07:15.190Z,13.10
2019-02-26T13:08:24.160Z,13.20
2019-02-26T13:09:29.138Z,13.20
2019-02-26T13:10:35.574Z,13.00
2019-02-26T13:12:00.257Z,12.90
2019-02-26T13:12:53.870Z,13.00
2019-02-26T13:13:59.073Z,12.80
2019-02-26T13:15:09.332Z,12.70
2019-02-26T13:16:13.184Z,12.60
2019-02-26T13:17:21.019Z,12.70
2019-02-26T13:18:27.426Z,12.60
2019-02-26T13:19:36.821Z,12.70
2019-02-26T13:20:40.838Z,12.80
2019-02-26T13:21:47.089Z,12.80
2019-02-26T13:22:56.515Z,13.50
2019-02-26T13:24:11.523Z,13.60
2019-02-26T13:25:15.059Z,13.10
2019-02-26T13:26:19.716Z,13.30
2019-02-26T13:27:24.738Z,14.40
2019-02-26T13:28:31.772Z,15.10
2019-02-26T13:29:42.438Z,16.30
2019-02-26T13:30:46.470Z,16.10
2019-02-26T13:31:56.521Z,17.20
2019-02-26T13:33:04.234Z,17.70
2019-02-26T13:34:13.881Z,18.00
2019-02-26T13:35:16.099Z,18.40
2019-02-26T13:36:22.547Z,19.30
2019-02-26T13:37:32.442Z,17.40
2019-02-26T13:38:44.710Z,17.40
2019-02-26T13:39:45.546Z,17.50
2019-02-26T13:40:51.973Z,18.30
2019-02-26T13:42:03.689Z,17.70
2019-02-26T13:43:08.451Z,18.50
2019-02-26T13:44:14.741Z,18.40
2019-02-26T13:45:22.045Z,18.60
2019-02-26T13:46:28.559Z,18.80
2019-02-26T13:47:34.767Z,18.70
2019-02-26T13:48:41.927Z,18.60
2019-02-26T13:49:48.138Z,18.50
2019-02-26T13:50:54.564Z,18.20
2019-02-26T13:52:01.006Z,18.30
2019-02-26T13:53:07.294Z,17.20
2019-02-26T13:54:13.120Z,16.40
2019-02-26T13:55:18.874Z,15.70
2019-02-26T13:56:25.495Z,15.60
2019-02-26T13:57:31.722Z,14.90
2019-02-26T13:58:37.935Z,14.60
2019-02-26T13:59:44.260Z,14.50
2019-02-26T14:00:50.493Z,14.30
2019-02-26T14:01:56.636Z,14.10
2019-02-26T14:03:04.164Z,13.80
2019-02-26T14:04:10.550Z,14.10
2019-02-26T14:05:17.308Z,14.40
2019-02-26T14:06:23.914Z,14.80
2019-02-26T14:07:29.902Z,14.60
2019-02-26T14:08:36.433Z,14.80
2019-02-26T14:09:42.808Z,14.80
2019-02-26T14:10:48.924Z,14.70
2019-02-26T14:11:55.194Z,14.90
2019-02-26T14:13:01.165Z,14.80
2019-02-26T14:14:07.321Z,14.10
2019-02-26T14:15:16.631Z,13.90
2019-02-26T14:16:23.117Z,13.50
2019-02-26T14:17:29.254Z,13.80
2019-02-26T14:18:35.414Z,14.10
2019-02-26T14:19:41.791Z,14.90
2019-02-26T14:20:47.749Z,14.90
2019-02-26T14:21:53.914Z,14.80
2019-02-26T14:23:00.066Z,14.70
2019-02-26T14:24:06.242Z,14.40
2019-02-26T14:25:12.710Z,14.30
2019-02-26T14:26:18.966Z,14.30
2019-02-26T14:27:25.249Z,14.00
2019-02-26T14:28:31.531Z,13.90
2019-02-26T14:29:37.737Z,13.50
2019-02-26T14:30:44.157Z,13.30
2019-02-26T14:31:50.148Z,13.10
2019-02-26T14:32:57.127Z,12.70
2019-02-26T14:34:05.363Z,12.60
2019-02-26T14:35:12.895Z,12.40
2019-02-26T14:36:19.053Z,12.20
2019-02-26T14:37:27.807Z,12.00
2019-02-26T14:38:34.094Z,11.90
2019-02-26T14:39:40.449Z,11.90
2019-02-26T14:40:46.563Z,11.90
2019-02-26T14:41:53.779Z,11.90
2019-02-26T14:43:00.233Z,11.90
2019-02-26T14:44:06.854Z,11.90
2019-02-26T14:45:16.345Z,12.00
2019-02-26T14:46:22.679Z,11.80
2019-02-26T14:47:30.061Z,11.70
2019-02-26T14:48:36.237Z,11.60
2019-02-26T14:49:42.392Z,11.50
2019-02-26T14:50:48.586Z,11.40
2019-02-26T14:51:54.803Z,11.40
2019-02-26T14:53:01.932Z,11.30